WAT90 MYNN-KFLL
Flight info
| Callsign | WAT90 |
|---|---|
| Flight time | 0h 39m |
| Altitude | 20000 |
| Route | PEACH OLAHS3 |
| Aircraft | B739/M-SDE2E3FGHIRWXY/LB1 |
Departure
| Time | 2026-05-04 01:23 |
|---|---|
| Airport | Lynden Pindling International Airport (MYNN) |
Arrival
| Time | 2026-05-04 02:02 |
|---|---|
| Airport | Fort Lauderdale Hollywood International Airport (KFLL) |
| Time | Latitude | Longitude | Altitude | Speed | Heading |
|---|---|---|---|---|---|
| 2026-05-04 01:07 | 25.05052 | -77.46845 | 16 ft | 0 kts | 347° |
| 2026-05-04 01:15 | 25.05036 | -77.46841 | 16 ft | 2 kts | 347° |
| 2026-05-04 01:16 | 25.05020 | -77.46837 | 17 ft | 2 kts | 344° |
| 2026-05-04 01:16 | 25.05004 | -77.46831 | 16 ft | 2 kts | 308° |
| 2026-05-04 01:16 | 25.05002 | -77.46818 | 16 ft | 1 kts | 251° |
| 2026-05-04 01:16 | 25.05002 | -77.46816 | 16 ft | 0 kts | 251° |
| 2026-05-04 01:19 | 25.05002 | -77.46817 | 16 ft | 1 kts | 251° |
| 2026-05-04 01:19 | 25.04992 | -77.46850 | 16 ft | 7 kts | 251° |
| 2026-05-04 01:19 | 25.04973 | -77.46899 | 16 ft | 7 kts | 246° |
| 2026-05-04 01:19 | 25.04934 | -77.46927 | 16 ft | 8 kts | 194° |
| 2026-05-04 01:20 | 25.04900 | -77.46976 | 17 ft | 9 kts | 266° |
| 2026-05-04 01:20 | 25.04937 | -77.47039 | 17 ft | 12 kts | 314° |
| 2026-05-04 01:20 | 25.05004 | -77.47114 | 17 ft | 15 kts | 314° |
| 2026-05-04 01:20 | 25.05077 | -77.47198 | 17 ft | 15 kts | 314° |
| 2026-05-04 01:21 | 25.05148 | -77.47278 | 18 ft | 14 kts | 314° |
| 2026-05-04 01:21 | 25.05207 | -77.47356 | 18 ft | 12 kts | 297° |
| 2026-05-04 01:21 | 25.05209 | -77.47447 | 18 ft | 12 kts | 253° |
| 2026-05-04 01:21 | 25.05175 | -77.47528 | 22 ft | 12 kts | 213° |
| 2026-05-04 01:22 | 25.05132 | -77.47513 | 19 ft | 7 kts | 136° |
| 2026-05-04 01:22 | 25.05004 | -77.47373 | 18 ft | 59 kts | 134° |
| 2026-05-04 01:22 | 25.04540 | -77.46856 | 20 ft | 128 kts | 135° |
| 2026-05-04 01:22 | 25.03789 | -77.46015 | 107 ft | 171 kts | 133° |
| 2026-05-04 01:23 | 25.02932 | -77.45080 | 720 ft | 179 kts | 135° |
| 2026-05-04 01:23 | 25.02019 | -77.44097 | 1318 ft | 188 kts | 135° |
| 2026-05-04 01:23 | 25.01048 | -77.43041 | 1766 ft | 205 kts | 134° |
| 2026-05-04 01:23 | 24.99957 | -77.41862 | 1894 ft | 231 kts | 134° |
| 2026-05-04 01:24 | 24.99019 | -77.40350 | 2058 ft | 253 kts | 104° |
| 2026-05-04 01:24 | 24.99109 | -77.38404 | 2579 ft | 263 kts | 67° |
| 2026-05-04 01:24 | 25.00246 | -77.36851 | 3321 ft | 265 kts | 33° |
| 2026-05-04 01:24 | 25.01926 | -77.36076 | 4047 ft | 269 kts | 9° |
| 2026-05-04 01:25 | 25.03792 | -77.36146 | 4760 ft | 271 kts | 341° |
| 2026-05-04 01:25 | 25.05442 | -77.37137 | 5538 ft | 273 kts | 319° |
| 2026-05-04 01:25 | 25.06845 | -77.38536 | 6423 ft | 274 kts | 315° |
| 2026-05-04 01:25 | 25.08230 | -77.40029 | 7240 ft | 278 kts | 313° |
| 2026-05-04 01:26 | 25.09607 | -77.41535 | 8090 ft | 279 kts | 313° |
| 2026-05-04 01:26 | 25.10999 | -77.43050 | 8930 ft | 282 kts | 313° |
| 2026-05-04 01:26 | 25.12406 | -77.44574 | 9777 ft | 285 kts | 313° |
| 2026-05-04 01:26 | 25.13840 | -77.46121 | 10434 ft | 295 kts | 313° |
| 2026-05-04 01:27 | 25.15350 | -77.47747 | 10617 ft | 320 kts | 313° |
| 2026-05-04 01:27 | 25.16944 | -77.49626 | 10798 ft | 341 kts | 303° |
| 2026-05-04 01:27 | 25.18166 | -77.51898 | 11078 ft | 355 kts | 296° |
| 2026-05-04 01:27 | 25.19327 | -77.54330 | 11650 ft | 360 kts | 295° |
| 2026-05-04 01:28 | 25.20486 | -77.56798 | 12343 ft | 362 kts | 295° |
| 2026-05-04 01:28 | 25.21652 | -77.59268 | 13031 ft | 364 kts | 295° |
| 2026-05-04 01:28 | 25.22836 | -77.61754 | 13676 ft | 367 kts | 295° |
| 2026-05-04 01:28 | 25.24036 | -77.64253 | 14259 ft | 370 kts | 295° |
| 2026-05-04 01:29 | 25.25252 | -77.66768 | 14847 ft | 372 kts | 295° |
| 2026-05-04 01:29 | 25.26477 | -77.69295 | 15418 ft | 374 kts | 295° |
| 2026-05-04 01:29 | 25.27711 | -77.71834 | 15988 ft | 376 kts | 294° |
| 2026-05-04 01:29 | 25.28950 | -77.74382 | 16549 ft | 378 kts | 294° |
| 2026-05-04 01:30 | 25.30199 | -77.76953 | 17095 ft | 381 kts | 294° |
| 2026-05-04 01:30 | 25.31458 | -77.79544 | 17632 ft | 383 kts | 294° |
| 2026-05-04 01:30 | 25.32722 | -77.82147 | 18147 ft | 386 kts | 294° |
| 2026-05-04 01:30 | 25.33995 | -77.84770 | 18619 ft | 388 kts | 294° |
| 2026-05-04 01:31 | 25.35272 | -77.87401 | 19094 ft | 389 kts | 294° |
| 2026-05-04 01:31 | 25.36540 | -77.90015 | 19675 ft | 386 kts | 294° |
| 2026-05-04 01:31 | 25.37808 | -77.92630 | 19959 ft | 384 kts | 294° |
| 2026-05-04 01:31 | 25.39065 | -77.95227 | 20022 ft | 392 kts | 294° |
| 2026-05-04 01:32 | 25.40363 | -77.97917 | 20037 ft | 401 kts | 294° |
| 2026-05-04 01:32 | 25.41693 | -78.00671 | 20043 ft | 409 kts | 294° |
| 2026-05-04 01:32 | 25.43037 | -78.03453 | 20034 ft | 411 kts | 294° |
| 2026-05-04 01:32 | 25.44383 | -78.06233 | 20024 ft | 407 kts | 294° |
| 2026-05-04 01:33 | 25.45716 | -78.08988 | 20024 ft | 404 kts | 294° |
| 2026-05-04 01:33 | 25.47037 | -78.11723 | 20027 ft | 402 kts | 294° |
| 2026-05-04 01:33 | 25.48352 | -78.14452 | 20033 ft | 402 kts | 294° |
| 2026-05-04 01:33 | 25.49673 | -78.17195 | 20035 ft | 404 kts | 294° |
| 2026-05-04 01:34 | 25.50992 | -78.19936 | 20037 ft | 405 kts | 294° |
| 2026-05-04 01:34 | 25.52310 | -78.22675 | 20035 ft | 407 kts | 294° |
| 2026-05-04 01:34 | 25.53542 | -78.25489 | 20024 ft | 404 kts | 285° |
| 2026-05-04 01:34 | 25.54241 | -78.28487 | 20039 ft | 402 kts | 279° |
| 2026-05-04 01:35 | 25.54853 | -78.31510 | 20030 ft | 402 kts | 279° |
| 2026-05-04 01:35 | 25.55475 | -78.34521 | 20030 ft | 402 kts | 280° |
| 2026-05-04 01:35 | 25.56116 | -78.37542 | 20030 ft | 402 kts | 280° |
| 2026-05-04 01:35 | 25.56769 | -78.40555 | 20027 ft | 402 kts | 280° |
| 2026-05-04 01:36 | 25.57424 | -78.43560 | 20029 ft | 401 kts | 280° |
| 2026-05-04 01:36 | 25.58079 | -78.46564 | 20029 ft | 401 kts | 280° |
| 2026-05-04 01:36 | 25.58729 | -78.49556 | 20029 ft | 400 kts | 280° |
| 2026-05-04 01:36 | 25.59380 | -78.52556 | 19943 ft | 397 kts | 280° |
| 2026-05-04 01:37 | 25.60016 | -78.55481 | 19687 ft | 384 kts | 280° |
| 2026-05-04 01:37 | 25.60628 | -78.58298 | 19446 ft | 370 kts | 280° |
| 2026-05-04 01:37 | 25.61219 | -78.61022 | 19212 ft | 357 kts | 280° |
| 2026-05-04 01:37 | 25.61790 | -78.63671 | 19087 ft | 352 kts | 280° |
| 2026-05-04 01:38 | 25.62357 | -78.66307 | 19048 ft | 351 kts | 280° |
| 2026-05-04 01:38 | 25.62913 | -78.68893 | 19040 ft | 348 kts | 280° |
| 2026-05-04 01:38 | 25.63482 | -78.71541 | 19042 ft | 349 kts | 280° |
| 2026-05-04 01:38 | 25.64039 | -78.74130 | 19033 ft | 350 kts | 280° |
| 2026-05-04 01:39 | 25.64604 | -78.76758 | 19027 ft | 350 kts | 280° |
| 2026-05-04 01:39 | 25.65171 | -78.79398 | 18788 ft | 352 kts | 280° |
| 2026-05-04 01:39 | 25.65733 | -78.82013 | 18574 ft | 347 kts | 280° |
| 2026-05-04 01:39 | 25.66287 | -78.84587 | 18349 ft | 339 kts | 280° |
| 2026-05-04 01:40 | 25.66826 | -78.87097 | 18079 ft | 331 kts | 280° |
| 2026-05-04 01:40 | 25.67353 | -78.89561 | 17816 ft | 326 kts | 280° |
| 2026-05-04 01:40 | 25.67874 | -78.91998 | 17566 ft | 324 kts | 280° |
| 2026-05-04 01:40 | 25.68390 | -78.94421 | 17316 ft | 324 kts | 280° |
| 2026-05-04 01:41 | 25.68909 | -78.96854 | 17063 ft | 323 kts | 280° |
| 2026-05-04 01:41 | 25.69425 | -78.99275 | 16782 ft | 322 kts | 280° |
| 2026-05-04 01:41 | 25.69940 | -79.01690 | 16386 ft | 319 kts | 280° |
| 2026-05-04 01:41 | 25.70448 | -79.04073 | 15944 ft | 317 kts | 280° |
| 2026-05-04 01:42 | 25.70955 | -79.06456 | 15446 ft | 318 kts | 280° |
| 2026-05-04 01:42 | 25.71453 | -79.08801 | 15017 ft | 317 kts | 280° |
| 2026-05-04 01:42 | 25.71959 | -79.11185 | 14569 ft | 316 kts | 280° |
| 2026-05-04 01:42 | 25.72462 | -79.13556 | 14127 ft | 315 kts | 280° |
| 2026-05-04 01:43 | 25.72964 | -79.15923 | 13679 ft | 315 kts | 280° |
| 2026-05-04 01:43 | 25.73464 | -79.18281 | 13210 ft | 313 kts | 281° |
| 2026-05-04 01:43 | 25.73961 | -79.20629 | 12765 ft | 312 kts | 281° |
| 2026-05-04 01:43 | 25.74455 | -79.22965 | 12335 ft | 310 kts | 281° |
| 2026-05-04 01:44 | 25.74946 | -79.25288 | 11915 ft | 308 kts | 281° |
| 2026-05-04 01:44 | 25.75433 | -79.27594 | 11492 ft | 306 kts | 281° |
| 2026-05-04 01:44 | 25.75945 | -79.29889 | 11054 ft | 306 kts | 283° |
| 2026-05-04 01:44 | 25.76527 | -79.32132 | 10629 ft | 305 kts | 284° |
| 2026-05-04 01:45 | 25.77137 | -79.34384 | 10389 ft | 298 kts | 284° |
| 2026-05-04 01:45 | 25.77724 | -79.36544 | 10229 ft | 288 kts | 284° |
| 2026-05-04 01:45 | 25.78833 | -79.40669 | 9958 ft | 269 kts | 284° |
| 2026-05-04 01:46 | 25.79363 | -79.42662 | 9603 ft | 268 kts | 284° |
| 2026-05-04 01:46 | 25.79887 | -79.44641 | 9287 ft | 266 kts | 284° |
| 2026-05-04 01:46 | 25.80399 | -79.46577 | 8973 ft | 264 kts | 284° |
| 2026-05-04 01:46 | 25.80913 | -79.48524 | 8656 ft | 262 kts | 284° |
| 2026-05-04 01:47 | 25.81424 | -79.50461 | 8329 ft | 261 kts | 284° |
| 2026-05-04 01:47 | 25.81932 | -79.52386 | 8025 ft | 259 kts | 284° |
| 2026-05-04 01:47 | 25.82437 | -79.54300 | 7719 ft | 258 kts | 284° |
| 2026-05-04 01:47 | 25.82939 | -79.56209 | 7403 ft | 256 kts | 284° |
| 2026-05-04 01:48 | 25.83439 | -79.58106 | 7099 ft | 255 kts | 284° |
| 2026-05-04 01:48 | 25.83942 | -79.59999 | 6785 ft | 255 kts | 286° |
| 2026-05-04 01:48 | 25.84580 | -79.61840 | 6470 ft | 255 kts | 290° |
| 2026-05-04 01:48 | 25.85275 | -79.63648 | 6140 ft | 255 kts | 291° |
| 2026-05-04 01:49 | 25.86009 | -79.65446 | 6032 ft | 257 kts | 293° |
| 2026-05-04 01:49 | 25.86787 | -79.67219 | 5993 ft | 259 kts | 294° |
| 2026-05-04 01:49 | 25.87572 | -79.69011 | 5988 ft | 256 kts | 293° |
| 2026-05-04 01:49 | 25.88343 | -79.70787 | 5966 ft | 254 kts | 293° |
| 2026-05-04 01:50 | 25.89104 | -79.72552 | 5988 ft | 254 kts | 293° |
| 2026-05-04 01:50 | 25.89865 | -79.74324 | 5994 ft | 255 kts | 293° |
| 2026-05-04 01:50 | 25.90625 | -79.76103 | 5994 ft | 256 kts | 293° |
| 2026-05-04 01:50 | 25.91391 | -79.77900 | 5993 ft | 257 kts | 293° |
| 2026-05-04 01:51 | 25.92163 | -79.79713 | 5999 ft | 264 kts | 293° |
| 2026-05-04 01:51 | 25.92957 | -79.81578 | 5994 ft | 267 kts | 293° |
| 2026-05-04 01:51 | 25.93748 | -79.83436 | 5973 ft | 266 kts | 293° |
| 2026-05-04 01:51 | 25.94529 | -79.85270 | 5987 ft | 265 kts | 293° |
| 2026-05-04 01:52 | 25.95315 | -79.87116 | 5991 ft | 264 kts | 293° |
| 2026-05-04 01:52 | 25.96097 | -79.88954 | 5988 ft | 263 kts | 292° |
| 2026-05-04 01:52 | 25.96879 | -79.90795 | 5994 ft | 262 kts | 292° |
| 2026-05-04 01:52 | 25.97655 | -79.92625 | 5997 ft | 261 kts | 292° |
| 2026-05-04 01:53 | 25.98432 | -79.94455 | 6001 ft | 262 kts | 293° |
| 2026-05-04 01:53 | 25.99403 | -79.96185 | 5997 ft | 266 kts | 306° |
| 2026-05-04 01:53 | 26.00624 | -79.97735 | 6002 ft | 268 kts | 309° |
| 2026-05-04 01:53 | 26.01895 | -79.99249 | 5998 ft | 269 kts | 310° |
| 2026-05-04 01:54 | 26.03153 | -80.00746 | 5999 ft | 269 kts | 310° |
| 2026-05-04 01:54 | 26.04445 | -80.02300 | 6002 ft | 270 kts | 309° |
| 2026-05-04 01:54 | 26.05712 | -80.03840 | 6005 ft | 270 kts | 309° |
| 2026-05-04 01:54 | 26.06985 | -80.05399 | 6006 ft | 271 kts | 309° |
| 2026-05-04 01:55 | 26.08231 | -80.06931 | 5998 ft | 271 kts | 309° |
| 2026-05-04 01:55 | 26.09494 | -80.08489 | 5884 ft | 271 kts | 309° |
| 2026-05-04 01:55 | 26.10759 | -80.10052 | 5666 ft | 271 kts | 309° |
| 2026-05-04 01:55 | 26.12021 | -80.11614 | 5425 ft | 271 kts | 309° |
| 2026-05-04 01:56 | 26.13281 | -80.13173 | 5181 ft | 269 kts | 309° |
| 2026-05-04 01:56 | 26.14462 | -80.14764 | 4922 ft | 264 kts | 297° |
| 2026-05-04 01:56 | 26.15034 | -80.16667 | 4651 ft | 257 kts | 276° |
| 2026-05-04 01:56 | 26.15106 | -80.18659 | 4075 ft | 258 kts | 270° |
| 2026-05-04 01:57 | 26.15096 | -80.20671 | 3513 ft | 260 kts | 269° |
| 2026-05-04 01:57 | 26.15082 | -80.22650 | 3018 ft | 259 kts | 270° |
| 2026-05-04 01:57 | 26.15074 | -80.24667 | 2464 ft | 260 kts | 270° |
| 2026-05-04 01:57 | 26.15020 | -80.26681 | 1950 ft | 260 kts | 258° |
| 2026-05-04 01:58 | 26.14184 | -80.28366 | 1792 ft | 244 kts | 222° |
| 2026-05-04 01:58 | 26.12775 | -80.29261 | 1697 ft | 226 kts | 196° |
| 2026-05-04 01:58 | 26.11269 | -80.29436 | 1584 ft | 211 kts | 173° |
| 2026-05-04 01:58 | 26.09921 | -80.29006 | 1518 ft | 193 kts | 154° |
| 2026-05-04 01:59 | 26.08865 | -80.28234 | 1490 ft | 175 kts | 134° |
| 2026-05-04 01:59 | 26.08168 | -80.27191 | 1496 ft | 163 kts | 112° |
| 2026-05-04 01:59 | 26.07899 | -80.26020 | 1525 ft | 155 kts | 96° |
| 2026-05-04 01:59 | 26.07778 | -80.24834 | 1463 ft | 154 kts | 93° |
| 2026-05-04 02:00 | 26.07737 | -80.23640 | 1285 ft | 154 kts | 89° |
| 2026-05-04 02:00 | 26.07730 | -80.22455 | 1066 ft | 151 kts | 89° |
| 2026-05-04 02:00 | 26.07723 | -80.21297 | 883 ft | 149 kts | 88° |
| 2026-05-04 02:00 | 26.07707 | -80.20140 | 681 ft | 150 kts | 89° |
| 2026-05-04 02:01 | 26.07707 | -80.18975 | 473 ft | 151 kts | 87° |
| 2026-05-04 02:01 | 26.07701 | -80.17802 | 269 ft | 154 kts | 89° |
| 2026-05-04 02:01 | 26.07698 | -80.16611 | 57 ft | 153 kts | 89° |
| 2026-05-04 02:01 | 26.07691 | -80.15466 | 15 ft | 132 kts | 92° |
| 2026-05-04 02:02 | 26.07683 | -80.14730 | 18 ft | 56 kts | 90° |
| 2026-05-04 02:02 | 26.07649 | -80.14438 | 19 ft | 25 kts | 116° |
| 2026-05-04 02:02 | 26.07580 | -80.14309 | 17 ft | 17 kts | 121° |
| 2026-05-04 02:02 | 26.07558 | -80.14181 | 16 ft | 17 kts | 90° |
| 2026-05-04 02:03 | 26.07558 | -80.14054 | 16 ft | 16 kts | 90° |
| 2026-05-04 02:03 | 26.07552 | -80.13977 | 15 ft | 14 kts | 110° |
| 2026-05-04 02:03 | 26.07491 | -80.13895 | 17 ft | 14 kts | 127° |
| 2026-05-04 02:03 | 26.07473 | -80.13808 | 15 ft | 12 kts | 94° |
| 2026-05-04 02:04 | 26.07464 | -80.13720 | 15 ft | 11 kts | 109° |
| 2026-05-04 02:04 | 26.07376 | -80.13689 | 15 ft | 11 kts | 177° |
| 2026-05-04 02:04 | 26.07349 | -80.13664 | 15 ft | 7 kts | 102° |
| 2026-05-04 02:04 | 26.07343 | -80.13639 | 15 ft | 0 kts | 103° |